Time;durP1;ratioP1;P1;durP2;ratioP2;P2;SDS_P1;SDS_P2;PMS_P1;PMS_P2;Temp;Humidity;BMP_temperature;BMP_pressure;BME280_temperature;BME280_humidity;BME280_pressure;Samples;Min_cycle;Max_cycle;Signal;HPM_P1;HPM_P2
2021/12/04 00:00:45;;;;;;;;;;;;;;;20.69;46.50;99620.16;2096326;28;19912;-65
2021/12/04 00:01:46;;;;;;;;;;;;;;;20.68;46.68;99619.31;2095072;28;19916;-66
2021/12/04 00:02:46;;;;;;;;;;;;;;;20.69;46.74;99617.41;2095471;28;20645;-65
2021/12/04 00:03:47;;;;;;;;;;;;;;;20.70;46.64;99610.88;2095740;28;19916;-66
2021/12/04 00:04:50;;;;;;;;;;;;;;;20.71;46.75;99609.88;2093721;28;20338;-65
2021/12/04 00:05:54;;;;;;;;;;;;;;;20.72;46.75;99612.44;2093565;28;19923;-66
2021/12/04 00:06:55;;;;;;;;;;;;;;;20.69;46.54;99611.94;2087851;28;19952;-66
2021/12/04 00:07:56;;;;;;;;;;;;;;;20.70;46.67;99608.16;2090306;28;19966;-65
2021/12/04 00:09:03;;;;;;;;;;;;;;;20.67;46.77;99605.75;2095151;28;19944;-65
2021/12/04 00:10:04;;;;;;;;;;;;;;;20.68;46.75;99602.03;2091408;28;19960;-66
2021/12/04 00:11:05;;;;;;;;;;;;;;;20.69;46.80;99598.25;2092532;28;19912;-66
2021/12/04 00:12:06;;;;;;;;;;;;;;;20.69;46.71;99598.25;2089040;28;19998;-66
2021/12/04 00:13:07;;;;;;;;;;;;;;;20.69;46.77;99603.72;2094579;28;19924;-66
2021/12/04 00:14:07;;;;;;;;;;;;;;;20.69;46.68;99598.25;2094054;28;19911;-67
2021/12/04 00:15:07;;;;;;;;;;;;;;;20.71;46.87;99601.66;2088312;28;19967;-65
2021/12/04 00:16:07;;;;;;;;;;;;;;;20.70;46.75;99594.47;2098138;28;19912;-66
2021/12/04 00:17:08;;;;;;;;;;;;;;;20.71;46.64;99601.66;2096621;28;19917;-67
2021/12/04 00:18:08;;;;;;;;;;;;;;;20.69;46.98;99601.81;2093424;28;19922;-67
2021/12/04 00:19:09;;;;;;;;;;;;;;;20.70;46.71;99602.66;2091781;28;19920;-66
2021/12/04 00:20:10;;;;;;;;;;;;;;;20.70;46.75;99599.94;2091149;28;19916;-67
2021/12/04 00:21:10;;;;;;;;;;;;;;;20.71;46.59;99601.66;2093812;28;19916;-67
2021/12/04 00:22:10;;;;;;;;;;;;;;;20.69;46.58;99598.25;2095696;28;19916;-68
2021/12/04 00:23:11;;;;;;;;;;;;;;;20.69;46.80;99592.75;2094398;28;19926;-67
2021/12/04 00:24:12;;;;;;;;;;;;;;;20.68;46.61;99591.91;2092614;28;19956;-67
2021/12/04 00:25:12;;;;;;;;;;;;;;;20.69;46.57;99587.28;2098430;28;19923;-68
2021/12/04 00:26:12;;;;;;;;;;;;;;;20.69;46.74;99587.28;2096984;28;20339;-67
2021/12/04 00:27:13;;;;;;;;;;;;;;;20.69;46.58;99587.28;2098699;28;20492;-67
2021/12/04 00:28:13;;;;;;;;;;;;;;;20.69;46.75;99587.28;2096169;28;19923;-68
2021/12/04 00:29:13;;;;;;;;;;;;;;;20.69;46.61;99581.81;2091163;28;20317;-67
2021/12/04 00:30:14;;;;;;;;;;;;;;;20.70;46.75;99584.38;2097143;28;20390;-68
2021/12/04 00:31:14;;;;;;;;;;;;;;;20.69;46.61;99590.88;2089588;28;19936;-69
2021/12/04 00:32:22;;;;;;;;;;;;;;;20.71;46.68;99586.09;2090267;28;19916;-67
2021/12/04 00:33:28;;;;;;;;;;;;;;;20.70;46.44;99578.03;2086201;28;20589;-67
2021/12/04 00:34:31;;;;;;;;;;;;;;;20.67;46.68;99573.75;2088163;28;19919;-67
2021/12/04 00:37:17;;;;;;;;;;;;;;;20.68;46.67;99569.16;2084537;28;19909;-68
2021/12/04 00:49:29;;;;;;;;;;;;;;;20.66;46.69;99543.81;2099779;28;19999;-67
2021/12/04 00:50:30;;;;;;;;;;;;;;;20.66;46.79;99549.28;2098617;28;19917;-67
2021/12/04 00:51:30;;;;;;;;;;;;;;;20.65;46.54;99542.97;2099001;28;19917;-66
2021/12/04 00:52:30;;;;;;;;;;;;;;;20.68;46.68;99549.97;2096080;28;19912;-66
2021/12/04 00:53:31;;;;;;;;;;;;;;;20.66;46.75;99538.34;2097067;28;20416;-68
2021/12/04 00:54:31;;;;;;;;;;;;;;;20.66;46.50;99543.81;2097219;28;20011;-66
2021/12/04 00:55:31;;;;;;;;;;;;;;;20.68;46.61;99534.41;2094540;28;19947;-66
2021/12/04 00:56:32;;;;;;;;;;;;;;;20.68;46.45;99541.78;2099044;28;19912;-67
2021/12/04 00:57:33;;;;;;;;;;;;;;;20.67;46.46;99546.38;2091350;28;19912;-66
2021/12/04 00:58:33;;;;;;;;;;;;;;;20.67;46.61;99540.88;2094143;28;19961;-66
2021/12/04 00:59:33;;;;;;;;;;;;;;;20.67;46.58;99542.78;2099249;28;20391;-66
2021/12/04 01:00:34;;;;;;;;;;;;;;;20.66;46.52;99541.94;2093637;28;19963;-66
2021/12/04 01:01:37;;;;;;;;;;;;;;;20.67;46.35;99540.03;2099558;28;19919;-66
2021/12/04 01:02:37;;;;;;;;;;;;;;;20.68;46.27;99542.63;2099274;28;19913;-66
2021/12/04 01:03:38;;;;;;;;;;;;;;;20.67;46.49;99540.88;2099372;28;20397;-66
2021/12/04 01:04:38;;;;;;;;;;;;;;;20.67;46.30;99540.88;2098977;28;19965;-66
2021/12/04 01:05:39;;;;;;;;;;;;;;;20.66;46.51;99539.19;2099074;28;19948;-66
2021/12/04 01:06:40;;;;;;;;;;;;;;;20.66;46.38;99539.19;2095483;28;19924;-66
2021/12/04 01:07:40;;;;;;;;;;;;;;;20.66;46.46;99538.34;2104790;28;19997;-66
2021/12/04 01:08:40;;;;;;;;;;;;;;;20.67;46.45;99531.81;2106114;28;19920;-67
2021/12/04 01:09:42;;;;;;;;;;;;;;;20.66;46.45;99530.97;2097495;28;19926;-66
2021/12/04 01:10:43;;;;;;;;;;;;;;;20.64;46.21;99534.91;2090588;28;19952;-66
2021/12/04 01:11:44;;;;;;;;;;;;;;;20.64;46.36;99534.91;2093197;28;19912;-67
2021/12/04 01:12:44;;;;;;;;;;;;;;;20.64;46.39;99530.28;2098318;28;20224;-68
2021/12/04 01:13:45;;;;;;;;;;;;;;;20.63;46.43;99527.72;2097742;28;20033;-66
2021/12/04 01:14:45;;;;;;;;;;;;;;;20.63;46.39;99527.72;2098901;28;19923;-67
2021/12/04 01:15:45;;;;;;;;;;;;;;;20.65;46.59;99531.13;2098017;28;19917;-65
2021/12/04 01:16:46;;;;;;;;;;;;;;;20.64;46.50;99532.19;2095795;28;20023;-66
2021/12/04 01:17:46;;;;;;;;;;;;;;;20.66;46.66;99527.38;2097260;28;19912;-66
2021/12/04 01:18:47;;;;;;;;;;;;;;;20.67;46.63;99529.09;2093893;28;19916;-66
2021/12/04 01:19:47;;;;;;;;;;;;;;;20.68;46.77;99525.34;2097529;28;19948;-67
2021/12/04 01:20:48;;;;;;;;;;;;;;;20.68;46.43;99525.34;2096897;28;19967;-66
2021/12/04 01:21:49;;;;;;;;;;;;;;;20.69;46.41;99527.03;2096251;28;19912;-67
2021/12/04 01:22:49;;;;;;;;;;;;;;;20.68;46.26;99528.06;2095133;28;20379;-67
2021/12/04 01:23:49;;;;;;;;;;;;;;;20.68;46.44;99517.13;2092928;28;19912;-67
2021/12/04 01:24:50;;;;;;;;;;;;;;;20.70;46.30;99528.72;2096142;28;20493;-67
2021/12/04 01:25:50;;;;;;;;;;;;;;;20.70;46.59;99523.25;2096786;28;19972;-67
2021/12/04 01:26:50;;;;;;;;;;;;;;;20.69;46.17;99524.28;2091009;28;19944;-67
2021/12/04 01:27:51;;;;;;;;;;;;;;;20.68;46.47;99525.34;2092091;28;19912;-67
2021/12/04 01:28:51;;;;;;;;;;;;;;;20.66;46.16;99525.50;2099119;28;19959;-67
2021/12/04 01:29:52;;;;;;;;;;;;;;;20.67;46.45;99529.09;2098958;28;19912;-66
2021/12/04 01:30:52;;;;;;;;;;;;;;;20.65;46.49;99531.13;2098791;28;19939;-66
2021/12/04 01:31:52;;;;;;;;;;;;;;;20.64;46.58;99529.44;2098132;28;20287;-66
2021/12/04 01:32:53;;;;;;;;;;;;;;;20.62;46.54;99532.34;2097852;28;19963;-67
2021/12/04 01:33:53;;;;;;;;;;;;;;;20.63;46.77;99527.72;2095527;28;19905;-66
2021/12/04 01:34:54;;;;;;;;;;;;;;;20.63;46.54;99530.44;2091451;28;19912;-66
2021/12/04 01:35:55;;;;;;;;;;;;;;;20.61;46.63;99530.66;2092404;28;19917;-66
2021/12/04 01:36:55;;;;;;;;;;;;;;;20.62;46.56;99531.50;2092837;28;19917;-66
2021/12/04 01:37:55;;;;;;;;;;;;;;;20.62;46.53;99536.97;2087055;28;20736;-66
2021/12/04 01:38:56;;;;;;;;;;;;;;;20.63;46.67;99530.44;2086556;28;20283;-67
2021/12/04 01:39:56;;;;;;;;;;;;;;;20.61;46.58;99530.66;2082076;28;19988;-67
2021/12/04 01:40:57;;;;;;;;;;;;;;;20.64;46.68;99532.19;2081647;28;20472;-67
2021/12/04 01:41:57;;;;;;;;;;;;;;;20.62;46.70;99526.88;2082502;28;19916;-68
2021/12/04 01:42:58;;;;;;;;;;;;;;;20.65;46.71;99536.63;2079989;28;20373;-68
2021/12/04 01:43:59;;;;;;;;;;;;;;;20.65;46.60;99528.41;2081502;28;19912;-67
2021/12/04 01:44:59;;;;;;;;;;;;;;;20.67;46.70;99529.09;2082926;28;19983;-68
2021/12/04 01:45:59;;;;;;;;;;;;;;;20.67;46.67;99523.59;2081152;28;19923;-68
2021/12/04 01:47:09;;;;;;;;;;;;;;;20.67;46.65;99520.88;2083547;28;20702;-68
2021/12/04 01:48:09;;;;;;;;;;;;;;;20.68;46.35;99533.56;2081359;28;19916;-68
2021/12/04 01:49:10;;;;;;;;;;;;;;;20.69;46.54;99521.56;2081876;28;19942;-68
2021/12/04 01:50:10;;;;;;;;;;;;;;;20.68;46.46;99519.84;2083847;28;20391;-67
2021/12/04 01:51:10;;;;;;;;;;;;;;;20.69;46.57;99527.03;2083570;28;19955;-68
2021/12/04 01:52:11;;;;;;;;;;;;;;;20.70;46.59;99528.72;2083343;28;20031;-68
2021/12/04 01:53:11;;;;;;;;;;;;;;;20.69;46.29;99525.13;2082939;28;19919;-68
2021/12/04 01:54:11;;;;;;;;;;;;;;;20.71;46.44;99522.25;2080827;28;19928;-68
2021/12/04 01:55:11;;;;;;;;;;;;;;;20.70;46.54;99520.50;2083229;28;20283;-68
2021/12/04 01:56:12;;;;;;;;;;;;;;;20.70;46.37;99528.72;2079199;28;19917;-68
2021/12/04 01:57:15;;;;;;;;;;;;;;;20.69;46.43;99521.56;2084717;28;19912;-67
2021/12/04 01:58:15;;;;;;;;;;;;;;;20.72;46.20;99526.69;2078046;28;19917;-68
2021/12/04 01:59:16;;;;;;;;;;;;;;;20.71;46.39;99527.72;2078632;28;20011;-68
2021/12/04 02:00:16;;;;;;;;;;;;;;;20.61;46.19;99535.28;2083954;28;19983;-68
2021/12/04 02:01:16;;;;;;;;;;;;;;;20.44;46.41;99518.81;2085018;28;20277;-69
2021/12/04 02:02:17;;;;;;;;;;;;;;;20.30;46.57;99528.56;2081868;28;19912;-69
2021/12/04 02:03:18;;;;;;;;;;;;;;;20.16;46.87;99525.66;2082640;28;19927;-68
2021/12/04 02:04:18;;;;;;;;;;;;;;;20.06;47.12;99520.34;2084479;28;20411;-69
2021/12/04 02:05:19;;;;;;;;;;;;;;;19.99;47.36;99520.22;2080291;28;20651;-69
2021/12/04 02:06:19;;;;;;;;;;;;;;;19.92;47.42;99519.16;2082054;28;19916;-69
2021/12/04 02:07:20;;;;;;;;;;;;;;;19.86;47.70;99514.38;2083565;28;19948;-68
2021/12/04 02:08:22;;;;;;;;;;;;;;;19.84;47.88;99517.28;2080889;28;19923;-69
2021/12/04 02:09:23;;;;;;;;;;;;;;;19.80;47.94;99515.06;2080319;28;19917;-69
2021/12/04 02:10:23;;;;;;;;;;;;;;;19.78;48.10;99522.56;2083946;28;19928;-68
2021/12/04 02:11:23;;;;;;;;;;;;;;;19.75;48.11;99517.44;2082706;28;20363;-69
2021/12/04 02:12:24;;;;;;;;;;;;;;;19.75;48.12;99520.16;2084984;28;19920;-69
2021/12/04 02:13:24;;;;;;;;;;;;;;;19.72;48.03;99512.28;2087846;28;20243;-69
2021/12/04 02:14:24;;;;;;;;;;;;;;;19.70;48.21;99516.06;2090906;28;19965;-68
2021/12/04 02:15:25;;;;;;;;;;;;;;;19.70;48.23;99510.59;2082599;28;19913;-69
2021/12/04 02:16:25;;;;;;;;;;;;;;;19.69;48.19;99511.59;2079635;28;19927;-68
2021/12/04 02:17:26;;;;;;;;;;;;;;;19.69;48.27;99508.00;2078566;28;19923;-68
2021/12/04 02:18:26;;;;;;;;;;;;;;;19.69;48.21;99506.13;2083100;28;20284;-69
2021/12/04 02:19:27;;;;;;;;;;;;;;;19.69;48.23;99502.53;2082050;28;19920;-69
2021/12/04 02:20:28;;;;;;;;;;;;;;;19.69;48.33;99506.13;2080366;28;19916;-69
2021/12/04 02:21:30;;;;;;;;;;;;;;;19.69;48.23;99513.47;2083800;28;19921;-69
2021/12/04 02:22:30;;;;;;;;;;;;;;;19.69;48.24;99502.53;2084953;28;19916;-69
2021/12/04 02:23:30;;;;;;;;;;;;;;;19.70;48.33;99504.25;2088609;28;19920;-69
2021/12/04 02:24:31;;;;;;;;;;;;;;;19.69;48.23;99503.38;2089402;28;19916;-69
2021/12/04 02:25:31;;;;;;;;;;;;;;;19.72;48.20;99507.69;2083198;28;19927;-69
2021/12/04 02:26:32;;;;;;;;;;;;;;;19.75;48.13;99506.50;2083085;28;20642;-69
2021/12/04 02:27:32;;;;;;;;;;;;;;;19.78;48.15;99500.69;2080160;28;19923;-69
2021/12/04 02:28:32;;;;;;;;;;;;;;;19.78;48.12;99501.53;2083677;28;19908;-69
2021/12/04 02:29:33;;;;;;;;;;;;;;;19.81;47.97;99505.81;2082064;28;19921;-69
2021/12/04 02:30:36;;;;;;;;;;;;;;;19.82;47.91;99502.03;2083382;28;20361;-69
2021/12/04 02:31:36;;;;;;;;;;;;;;;19.84;47.97;99505.47;2079581;28;20493;-69
2021/12/04 02:32:37;;;;;;;;;;;;;;;19.86;47.99;99497.94;2084301;28;20489;-69
2021/12/04 02:33:38;;;;;;;;;;;;;;;19.87;47.84;99499.69;2084476;28;19924;-69
2021/12/04 02:34:39;;;;;;;;;;;;;;;19.90;47.82;99502.06;2077972;28;19923;-69
2021/12/04 02:35:40;;;;;;;;;;;;;;;19.91;47.76;99501.03;2080099;28;20406;-69
2021/12/04 02:36:40;;;;;;;;;;;;;;;19.94;47.87;99495.22;2082276;28;19920;-69
2021/12/04 02:37:41;;;;;;;;;;;;;;;19.96;47.69;99498.63;2083503;28;19916;-69
2021/12/04 02:38:41;;;;;;;;;;;;;;;19.97;47.74;99500.38;2083239;28;20272;-69
2021/12/04 02:39:44;;;;;;;;;;;;;;;20.00;47.61;99497.28;2083065;28;20431;-68
2021/12/04 02:40:46;;;;;;;;;;;;;;;20.01;47.51;99496.25;2085158;28;19996;-69
2021/12/04 02:41:46;;;;;;;;;;;;;;;20.02;47.55;99495.22;2081639;28;20087;-68
2021/12/04 02:42:47;;;;;;;;;;;;;;;20.04;47.45;99501.41;2084926;28;20516;-69
2021/12/04 02:43:48;;;;;;;;;;;;;;;20.06;47.50;99488.41;2080838;28;19982;-69
2021/12/04 02:44:48;;;;;;;;;;;;;;;20.08;47.46;99496.44;2080828;28;19915;-69
2021/12/04 02:45:49;;;;;;;;;;;;;;;20.09;47.44;99499.00;2079022;28;20276;-69
2021/12/04 02:46:49;;;;;;;;;;;;;;;20.10;47.42;99484.28;2085427;28;19927;-69
2021/12/04 02:47:50;;;;;;;;;;;;;;;20.13;47.23;99483.94;2082667;28;19916;-69
2021/12/04 02:48:50;;;;;;;;;;;;;;;20.14;47.21;99487.53;2084833;28;19917;-69
2021/12/04 02:49:51;;;;;;;;;;;;;;;20.15;47.34;99483.78;2080454;28;20002;-69
2021/12/04 02:50:51;;;;;;;;;;;;;;;20.16;47.25;99481.88;2083953;28;19913;-69
2021/12/04 02:51:51;;;;;;;;;;;;;;;20.17;47.36;99481.72;2084815;28;20598;-68
2021/12/04 02:52:51;;;;;;;;;;;;;;;20.19;47.07;99481.56;2081177;28;20857;-69
2021/12/04 02:53:52;;;;;;;;;;;;;;;20.19;47.13;99476.94;2084167;28;19916;-69
2021/12/04 02:54:54;;;;;;;;;;;;;;;20.20;47.19;99478.63;2081874;28;20197;-69
2021/12/04 02:55:54;;;;;;;;;;;;;;;20.22;47.05;99475.75;2082887;28;19917;-69
2021/12/04 02:56:55;;;;;;;;;;;;;;;20.23;47.13;99475.53;2083126;28;19913;-69
2021/12/04 02:57:55;;;;;;;;;;;;;;;20.24;47.10;99473.69;2082512;28;20248;-68
2021/12/04 02:59:01;;;;;;;;;;;;;;;20.25;47.20;99475.38;2082036;28;20276;-69
2021/12/04 03:00:03;;;;;;;;;;;;;;;20.26;47.03;99472.50;2084647;28;19962;-69
2021/12/04 03:01:03;;;;;;;;;;;;;;;20.29;46.99;99468.56;2081877;28;20034;-69
2021/12/04 03:02:15;;;;;;;;;;;;;;;20.29;46.93;99476.75;2082710;28;19938;-69
2021/12/04 03:03:18;;;;;;;;;;;;;;;20.31;47.08;99470.09;2082802;28;20004;-69
2021/12/04 03:04:18;;;;;;;;;;;;;;;20.31;47.04;99470.09;2082365;28;19909;-69
2021/12/04 03:05:26;;;;;;;;;;;;;;;20.33;46.83;99469.91;2084304;28;19948;-69
2021/12/04 03:06:27;;;;;;;;;;;;;;;20.34;46.91;99466.16;2082378;28;20041;-69
2021/12/04 03:07:27;;;;;;;;;;;;;;;20.35;47.07;99465.09;2082569;28;20406;-69
2021/12/04 03:08:27;;;;;;;;;;;;;;;20.36;47.05;99464.09;2081864;28;19916;-69
2021/12/04 03:09:28;;;;;;;;;;;;;;;20.35;46.76;99459.63;2081975;28;19970;-68
2021/12/04 03:10:28;;;;;;;;;;;;;;;20.37;46.99;99468.53;2084089;28;19912;-68
2021/12/04 03:11:28;;;;;;;;;;;;;;;20.38;46.86;99459.28;2082120;28;19935;-69
2021/12/04 03:12:29;;;;;;;;;;;;;;;20.40;46.67;99465.44;2083752;28;19917;-69
2021/12/04 03:13:29;;;;;;;;;;;;;;;20.39;46.98;99461.00;2083650;28;19909;-69
2021/12/04 03:14:29;;;;;;;;;;;;;;;20.42;46.79;99454.31;2082365;28;20106;-69
2021/12/04 03:15:30;;;;;;;;;;;;;;;20.41;46.85;99456.22;2084235;28;20022;-69
2021/12/04 03:16:30;;;;;;;;;;;;;;;20.41;46.90;99456.22;2084343;28;19923;-68
2021/12/04 03:17:31;;;;;;;;;;;;;;;20.41;46.90;99458.94;2084020;28;19916;-69
2021/12/04 03:18:31;;;;;;;;;;;;;;;20.42;46.91;99460.66;2085921;28;20263;-70
2021/12/04 03:19:32;;;;;;;;;;;;;;;20.42;46.81;99457.06;2083542;28;19973;-69
2021/12/04 03:20:40;;;;;;;;;;;;;;;20.42;46.89;99460.66;2089694;28;20455;-68
2021/12/04 03:21:40;;;;;;;;;;;;;;;20.42;46.76;99457.91;2083367;28;20403;-69
2021/12/04 03:22:41;;;;;;;;;;;;;;;20.42;46.72;99449.69;2084483;28;20425;-69
2021/12/04 03:23:53;;;;;;;;;;;;;;;20.42;46.91;99443.38;2083266;28;19916;-69
2021/12/04 03:24:55;;;;;;;;;;;;;;;20.41;46.87;99442.53;2083083;28;19974;-69
2021/12/04 03:25:58;;;;;;;;;;;;;;;20.41;46.78;99442.53;2085476;28;20139;-69
2021/12/04 03:26:59;;;;;;;;;;;;;;;20.42;46.98;99438.75;2085847;28;20449;-69
2021/12/04 03:28:04;;;;;;;;;;;;;;;20.41;46.79;99442.53;2082665;28;20746;-69
2021/12/04 03:29:08;;;;;;;;;;;;;;;20.41;46.78;99448.00;2084471;28;19913;-70
2021/12/04 03:30:20;;;;;;;;;;;;;;;20.39;46.89;99436.38;2084984;28;19916;-69
2021/12/04 03:41:48;;;;;;;;;;;;;;;20.38;46.95;99425.59;2084849;28;20387;-69
2021/12/04 03:42:49;;;;;;;;;;;;;;;20.38;46.95;99420.94;2083896;28;19947;-69
2021/12/04 03:43:49;;;;;;;;;;;;;;;20.38;47.14;99426.44;2085179;28;20863;-69
2021/12/04 03:44:50;;;;;;;;;;;;;;;20.38;46.98;99426.44;2081876;28;19916;-69
2021/12/04 03:45:58;;;;;;;;;;;;;;;20.38;47.06;99423.69;2084091;28;19916;-69
2021/12/04 03:46:59;;;;;;;;;;;;;;;20.37;46.98;99423.88;2083149;28;19944;-69
2021/12/04 03:48:07;;;;;;;;;;;;;;;20.37;47.09;99419.25;2083025;28;20353;-69
2021/12/04 03:49:07;;;;;;;;;;;;;;;20.36;47.00;99423.03;2084221;28;19909;-69
2021/12/04 03:50:08;;;;;;;;;;;;;;;20.36;47.00;99423.03;2090423;28;20082;-69
2021/12/04 03:51:09;;;;;;;;;;;;;;;20.37;46.99;99421.16;2092487;28;20329;-69
2021/12/04 03:52:09;;;;;;;;;;;;;;;20.37;47.11;99422.00;2084850;28;19928;-69
2021/12/04 03:53:10;;;;;;;;;;;;;;;20.37;47.16;99421.16;2084146;28;19963;-69
2021/12/04 03:54:10;;;;;;;;;;;;;;;20.37;47.03;99422.00;2083975;28;19919;-69
2021/12/04 03:55:11;;;;;;;;;;;;;;;20.37;47.04;99424.72;2084764;28;20484;-69
2021/12/04 03:56:12;;;;;;;;;;;;;;;20.38;46.96;99423.69;2085058;28;19916;-69
2021/12/04 03:57:13;;;;;;;;;;;;;;;20.38;47.02;99429.16;2081778;28;19916;-69
2021/12/04 03:58:13;;;;;;;;;;;;;;;20.38;47.03;99423.69;2082261;28;19913;-69
2021/12/04 03:59:13;;;;;;;;;;;;;;;20.37;47.04;99424.72;2083309;28;19916;-69
2021/12/04 04:00:15;;;;;;;;;;;;;;;20.37;47.16;99421.16;2082967;28;20161;-69
2021/12/04 04:01:16;;;;;;;;;;;;;;;20.38;47.15;99417.38;2083063;28;20482;-69
2021/12/04 04:02:17;;;;;;;;;;;;;;;20.38;47.10;99418.22;2083810;28;20866;-69
2021/12/04 04:03:17;;;;;;;;;;;;;;;20.37;47.21;99419.25;2084505;28;19916;-69
2021/12/04 04:04:17;;;;;;;;;;;;;;;20.37;47.06;99408.31;2084956;28;20111;-70
2021/12/04 04:05:18;;;;;;;;;;;;;;;20.37;47.06;99415.66;2084797;28;19927;-69
2021/12/04 04:06:18;;;;;;;;;;;;;;;20.35;47.09;99403.00;2084825;28;19908;-69
2021/12/04 04:07:18;;;;;;;;;;;;;;;20.35;47.06;99413.09;2082731;28;20149;-69
2021/12/04 04:08:19;;;;;;;;;;;;;;;20.34;47.21;99409.50;2093230;28;20422;-69
2021/12/04 04:09:19;;;;;;;;;;;;;;;20.35;47.07;99404.88;2090677;28;20003;-69
2021/12/04 04:10:21;;;;;;;;;;;;;;;20.35;47.29;99403.00;2085290;28;19908;-70
2021/12/04 04:11:21;;;;;;;;;;;;;;;20.33;47.11;99393.25;2083848;28;19916;-69
2021/12/04 04:12:21;;;;;;;;;;;;;;;20.33;47.09;99396.88;2083513;28;19916;-69
2021/12/04 04:13:22;;;;;;;;;;;;;;;20.34;47.21;99389.50;2085211;28;20182;-69
2021/12/04 04:14:23;;;;;;;;;;;;;;;20.32;47.37;99389.66;2084895;28;19917;-70
2021/12/04 04:15:24;;;;;;;;;;;;;;;20.33;47.26;99390.53;2084124;28;19927;-69
2021/12/04 04:16:25;;;;;;;;;;;;;;;20.32;47.28;99388.81;2085657;28;20457;-69
2021/12/04 04:17:30;;;;;;;;;;;;;;;20.31;47.25;99382.50;2084175;28;20305;-69
2021/12/04 04:18:32;;;;;;;;;;;;;;;20.31;47.35;99387.13;2085376;28;20420;-69
2021/12/04 04:19:32;;;;;;;;;;;;;;;20.31;47.34;99387.13;2084307;28;19917;-69
2021/12/04 04:20:33;;;;;;;;;;;;;;;20.28;47.27;99381.97;2085872;28;19921;-69
2021/12/04 04:21:39;;;;;;;;;;;;;;;20.29;47.21;99386.44;2084959;28;20488;-69
2021/12/04 04:22:39;;;;;;;;;;;;;;;20.28;47.43;99382.81;2081059;28;19916;-69
2021/12/04 04:23:40;;;;;;;;;;;;;;;20.29;47.36;99383.72;2082722;28;20395;-69
2021/12/04 04:24:40;;;;;;;;;;;;;;;20.28;47.48;99381.97;2084443;28;19952;-69
2021/12/04 04:25:40;;;;;;;;;;;;;;;20.26;47.39;99382.19;2083901;28;19931;-69
2021/12/04 04:26:41;;;;;;;;;;;;;;;20.26;47.48;99384.03;2078942;28;20378;-69
2021/12/04 04:27:42;;;;;;;;;;;;;;;20.25;47.59;99379.59;2081688;28;20496;-69
2021/12/04 04:28:43;;;;;;;;;;;;;;;20.24;47.59;99375.16;2084192;28;20762;-68
2021/12/04 04:29:43;;;;;;;;;;;;;;;20.24;47.56;99376.03;2084676;28;20334;-69
2021/12/04 04:30:43;;;;;;;;;;;;;;;20.25;47.40;99371.41;2085228;28;20866;-69
2021/12/04 04:31:47;;;;;;;;;;;;;;;20.23;47.60;99377.03;2084229;28;20473;-69
2021/12/04 04:32:50;;;;;;;;;;;;;;;20.22;47.43;99369.88;2083592;28;19924;-69
2021/12/04 04:33:56;;;;;;;;;;;;;;;20.22;47.49;99361.66;2079724;28;19916;-69
2021/12/04 04:35:06;;;;;;;;;;;;;;;20.22;47.72;99372.59;2084494;28;20132;-69
2021/12/04 04:36:37;;;;;;;;;;;;;;;20.22;47.43;99371.75;2083160;28;19970;-69
2021/12/04 04:39:19;;;;;;;;;;;;;;;20.18;47.55;99364.91;2084597;28;20635;-69
2021/12/04 04:57:25;;;;;;;;;;;;;;;20.18;47.48;99375.84;2080097;28;20413;-69
2021/12/04 04:57:47;;;;;;;;;;;;;;;20.10;47.89;99352.09;2080897;28;19912;-69
2021/12/04 05:00:26;;;;;;;;;;;;;;;20.09;48.01;99354.00;2080846;28;19909;-69
2021/12/04 05:13:10;;;;;;;;;;;;;;;20.02;48.07;99333.81;2078320;28;19948;-69
2021/12/04 05:14:17;;;;;;;;;;;;;;;20.02;48.15;99333.81;2084765;28;19955;-69
2021/12/04 05:17:29;;;;;;;;;;;;;;;20.00;48.12;99327.66;2084864;28;20429;-69
2021/12/04 05:19:26;;;;;;;;;;;;;;;20.00;48.20;99324.09;2084885;28;20007;-69
2021/12/04 05:20:33;;;;;;;;;;;;;;;20.00;48.09;99327.66;2092475;28;19912;-69
2021/12/04 05:21:33;;;;;;;;;;;;;;;19.99;48.16;99317.78;2090203;28;20097;-69
2021/12/04 05:22:34;;;;;;;;;;;;;;;19.99;48.18;99323.25;2084017;28;19904;-69
2021/12/04 05:23:35;;;;;;;;;;;;;;;19.98;48.25;99318.78;2083663;28;19927;-69
2021/12/04 05:24:36;;;;;;;;;;;;;;;19.96;48.28;99318.09;2085009;28;19908;-70
2021/12/04 05:25:36;;;;;;;;;;;;;;;19.96;48.28;99318.09;2082519;28;19920;-69
2021/12/04 05:26:37;;;;;;;;;;;;;;;19.96;48.25;99320.84;2083716;28;20512;-69
2021/12/04 05:27:37;;;;;;;;;;;;;;;19.95;48.28;99313.66;2083641;28;19969;-69
2021/12/04 05:28:38;;;;;;;;;;;;;;;19.96;48.43;99312.63;2082088;28;19922;-69
2021/12/04 05:29:38;;;;;;;;;;;;;;;19.94;48.28;99308.34;2082320;28;19924;-69
2021/12/04 05:30:38;;;;;;;;;;;;;;;19.93;48.37;99312.97;2084662;28;19917;-69
2021/12/04 05:31:39;;;;;;;;;;;;;;;19.93;48.30;99307.50;2082983;28;20594;-69
2021/12/04 05:32:39;;;;;;;;;;;;;;;19.94;48.32;99308.34;2085311;28;19921;-69
2021/12/04 05:33:39;;;;;;;;;;;;;;;19.92;48.38;99311.28;2090922;28;20022;-69
2021/12/04 05:34:40;;;;;;;;;;;;;;;19.92;48.36;99303.94;2092613;28;19920;-69
2021/12/04 05:35:40;;;;;;;;;;;;;;;19.91;48.36;99309.56;2083517;28;19919;-69
2021/12/04 05:36:41;;;;;;;;;;;;;;;19.90;48.44;99303.25;2083018;28;19924;-69
2021/12/04 05:37:41;;;;;;;;;;;;;;;19.90;48.35;99307.88;2084781;28;19922;-69
2021/12/04 05:38:41;;;;;;;;;;;;;;;19.90;48.32;99302.41;2084587;28;19917;-69
2021/12/04 05:39:42;;;;;;;;;;;;;;;19.90;48.42;99302.41;2084700;28;19916;-69
2021/12/04 05:40:42;;;;;;;;;;;;;;;19.89;48.52;99304.28;2082860;28;19916;-69
2021/12/04 05:41:43;;;;;;;;;;;;;;;19.89;48.47;99306.16;2083715;28;19924;-69
2021/12/04 05:42:44;;;;;;;;;;;;;;;19.88;48.60;99304.44;2091334;28;19913;-69
2021/12/04 05:43:45;;;;;;;;;;;;;;;19.88;48.54;99297.09;2085456;28;19916;-69
2021/12/04 05:44:45;;;;;;;;;;;;;;;19.87;48.47;99291.81;2084153;28;19973;-69
2021/12/04 05:45:51;;;;;;;;;;;;;;;19.86;48.40;99292.81;2083862;28;19917;-69
2021/12/04 05:47:00;;;;;;;;;;;;;;;19.88;48.59;99298.97;2083009;28;19916;-69
2021/12/04 05:49:03;;;;;;;;;;;;;;;19.86;48.40;99295.56;2081271;28;20367;-69
2021/12/04 05:50:26;;;;;;;;;;;;;;;19.86;48.42;99292.81;2083591;28;19924;-70
2021/12/04 05:53:56;;;;;;;;;;;;;;;19.85;48.56;99293.88;2082732;28;19923;-69
2021/12/04 05:55:17;;;;;;;;;;;;;;;19.84;48.60;99282.09;2083940;28;19927;-69
2021/12/04 05:56:18;;;;;;;;;;;;;;;19.84;48.52;99283.94;2085852;28;20731;-68
2021/12/04 05:57:18;;;;;;;;;;;;;;;19.83;48.50;99287.72;2083751;28;19924;-69
2021/12/04 05:58:22;;;;;;;;;;;;;;;19.82;48.66;99280.53;2082047;28;19913;-69
2021/12/04 05:59:22;;;;;;;;;;;;;;;19.82;48.54;99280.53;2075993;28;20425;-69
2021/12/04 06:00:25;;;;;;;;;;;;;;;19.81;48.61;99282.41;2076404;28;19982;-68
2021/12/04 06:01:26;;;;;;;;;;;;;;;19.81;48.61;99281.56;2081323;28;19912;-69
2021/12/04 06:02:26;;;;;;;;;;;;;;;19.80;48.60;99275.25;2084935;28;19917;-69
2021/12/04 06:03:27;;;;;;;;;;;;;;;19.80;48.62;99274.41;2083437;28;19924;-69
2021/12/04 06:04:27;;;;;;;;;;;;;;;19.80;48.65;99285.34;2085328;28;19947;-69
2021/12/04 06:05:29;;;;;;;;;;;;;;;19.80;48.69;99266.19;2079837;28;19982;-69
2021/12/04 06:06:30;;;;;;;;;;;;;;;19.80;48.67;99274.41;2084386;28;20826;-69
2021/12/04 06:07:30;;;;;;;;;;;;;;;19.78;48.67;99262.78;2084262;28;19916;-69
2021/12/04 06:08:31;;;;;;;;;;;;;;;19.78;48.69;99265.50;2081097;28;19959;-69
2021/12/04 06:09:31;;;;;;;;;;;;;;;19.78;48.73;99266.34;2083140;28;19912;-69
2021/12/04 06:10:31;;;;;;;;;;;;;;;19.77;48.62;99263.78;2078516;28;19912;-69
2021/12/04 06:11:32;;;;;;;;;;;;;;;19.76;48.74;99268.41;2083677;28;19916;-69
2021/12/04 06:12:33;;;;;;;;;;;;;;;19.75;48.69;99261.25;2084134;28;19916;-69
2021/12/04 06:13:33;;;;;;;;;;;;;;;19.75;48.66;99261.25;2083929;28;20439;-69
2021/12/04 06:14:34;;;;;;;;;;;;;;;19.75;48.80;99266.72;2083156;28;19916;-69
2021/12/04 06:15:35;;;;;;;;;;;;;;;19.75;48.79;99263.13;2084362;28;19916;-69
2021/12/04 06:16:35;;;;;;;;;;;;;;;19.75;48.74;99263.13;2084046;28;19917;-69
2021/12/04 06:17:35;;;;;;;;;;;;;;;19.75;48.73;99265.88;2084297;28;19916;-69
2021/12/04 06:18:36;;;;;;;;;;;;;;;19.74;48.72;99258.66;2084389;28;19908;-69
2021/12/04 06:22:43;;;;;;;;;;;;;;;19.72;48.84;99269.81;2056940;28;20211;-69
2021/12/04 06:23:43;;;;;;;;;;;;;;;19.70;48.83;99269.97;2057994;28;19987;-69
2021/12/04 06:24:44;;;;;;;;;;;;;;;19.70;48.78;99264.50;2058140;28;19917;-69